メインページ
METAR-TAF:

METAR-TAF

空港 :

ワルシャワ・ショパン空港

ワルシャワ, ポーランド

緯度: 52-10N, 経度: 020-58E, 海抜: 106m

現時点の気象観測

当レポートは12分前の06:00(UTC)に作成
北/北東の風 9kt、から東/北東の間で変化する
気温 1°C
湿度 86%
気圧 1022 hPa
視程10km以上
高度1000ftの千切れ雲あり
小雪

METAR: EPWA 130600Z 03009KT 360V060 9999 -SN BKN010 01/M01 Q1022 NOSIG

時間: 07:12 (06:12 UTC)

予報

当レポートは42分前の05:30(UTC)に作成
予報は13日の 06時(UTC)から 14日の 06時(UTC)まで有効
北/北東の風 6kt
視程10km以上
高度800ftの雲は散在している
高度1500ftの千切れ雲あり
確率 40% :
13日の 06時(UTC)から 13日の 18時(UTC)まで一時的に
視程: 4000m
高度500ftの千切れ雲あり
高度1200ftの曇り
小雪, 雨, 靄

TAF: EPWA 130530Z 1306/1406 02006KT 9999 SCT008 BKN015 PROB40 TEMPO 1306/1318 4000 -SNRA BR BKN005 OVC012

4,000以上の空港の気象観測と天気予報(METAR報とTAF報)

利用可能な観測所は地図上に黄色い丸と赤い丸で示す。

丸の上にカーソルを重ねると観測所名を参照できる。

次にクリックすると気象観測と天気予報を参照できる。

マップの切り替え:黒色「×」印の緑ボタンをクリックして拡大、「-」印の緑ボタンをクリックして縮小、緑色の三角印をクリックして隣りの地図に切り替え


METAR-TAF: